sensor_id;sensor_type;location;lat;lon;timestamp;temperature;humidity
25482;DHT22;13395;50.752;4.268;2023-03-01T00:01:45;0.70;99.90
25482;DHT22;13395;50.752;4.268;2023-03-01T00:04:10;0.70;99.90
25482;DHT22;13395;50.752;4.268;2023-03-01T00:06:36;0.60;99.90
25482;DHT22;13395;50.752;4.268;2023-03-01T00:09:02;0.60;99.90
25482;DHT22;13395;50.752;4.268;2023-03-01T00:11:30;0.60;99.90
25482;DHT22;13395;50.752;4.268;2023-03-01T00:13:58;0.60;99.90
25482;DHT22;13395;50.752;4.268;2023-03-01T00:16:30;0.50;99.90
25482;DHT22;13395;50.752;4.268;2023-03-01T00:18:56;0.50;99.90
25482;DHT22;13395;50.752;4.268;2023-03-01T00:21:23;0.50;99.90
25482;DHT22;13395;50.752;4.268;2023-03-01T00:23:49;0.50;99.90
25482;DHT22;13395;50.752;4.268;2023-03-01T00:26:16;0.50;99.90
25482;DHT22;13395;50.752;4.268;2023-03-01T00:28:43;0.50;99.90
25482;DHT22;13395;50.752;4.268;2023-03-01T00:31:18;0.40;99.90
25482;DHT22;13395;50.752;4.268;2023-03-01T00:33:44;0.40;99.90
25482;DHT22;13395;50.752;4.268;2023-03-01T00:36:12;0.40;99.90
25482;DHT22;13395;50.752;4.268;2023-03-01T00:38:40;0.40;99.90
25482;DHT22;13395;50.752;4.268;2023-03-01T00:41:09;0.40;99.90
25482;DHT22;13395;50.752;4.268;2023-03-01T00:43:35;0.30;99.90
25482;DHT22;13395;50.752;4.268;2023-03-01T00:46:10;0.10;99.90
25482;DHT22;13395;50.752;4.268;2023-03-01T00:48:37;-0.20;99.90
25482;DHT22;13395;50.752;4.268;2023-03-01T00:51:07;-0.30;99.90
25482;DHT22;13395;50.752;4.268;2023-03-01T00:53:34;-0.40;99.90
25482;DHT22;13395;50.752;4.268;2023-03-01T00:55:59;-0.20;99.90
25482;DHT22;13395;50.752;4.268;2023-03-01T00:58:25;-0.20;99.90
25482;DHT22;13395;50.752;4.268;2023-03-01T01:00:51;-0.20;99.90
25482;DHT22;13395;50.752;4.268;2023-03-01T01:03:18;-0.20;99.90
25482;DHT22;13395;50.752;4.268;2023-03-01T01:05:43;-0.20;99.90
25482;DHT22;13395;50.752;4.268;2023-03-01T01:08:09;-0.20;99.90
25482;DHT22;13395;50.752;4.268;2023-03-01T01:10:35;-0.20;99.90
25482;DHT22;13395;50.752;4.268;2023-03-01T01:13:00;-0.30;99.90
25482;DHT22;13395;50.752;4.268;2023-03-01T01:15:26;-0.20;99.90
25482;DHT22;13395;50.752;4.268;2023-03-01T01:17:52;-0.20;99.90
25482;DHT22;13395;50.752;4.268;2023-03-01T01:20:18;-0.30;99.90
25482;DHT22;13395;50.752;4.268;2023-03-01T01:22:43;-0.20;99.90
25482;DHT22;13395;50.752;4.268;2023-03-01T01:25:09;-0.20;99.90
25482;DHT22;13395;50.752;4.268;2023-03-01T01:27:36;-0.20;99.90
25482;DHT22;13395;50.752;4.268;2023-03-01T01:30:02;-0.50;99.90
25482;DHT22;13395;50.752;4.268;2023-03-01T01:32:28;-0.50;99.90
25482;DHT22;13395;50.752;4.268;2023-03-01T01:34:54;-0.50;99.90
25482;DHT22;13395;50.752;4.268;2023-03-01T01:37:20;-0.50;99.90
25482;DHT22;13395;50.752;4.268;2023-03-01T01:39:45;-0.50;99.90
25482;DHT22;13395;50.752;4.268;2023-03-01T01:42:15;-0.40;99.90
25482;DHT22;13395;50.752;4.268;2023-03-01T01:44:44;-0.40;99.90
25482;DHT22;13395;50.752;4.268;2023-03-01T01:47:22;-0.40;99.90
25482;DHT22;13395;50.752;4.268;2023-03-01T01:49:54;-0.40;99.90
25482;DHT22;13395;50.752;4.268;2023-03-01T01:52:29;-0.40;99.90
25482;DHT22;13395;50.752;4.268;2023-03-01T01:55:08;-0.50;99.90
25482;DHT22;13395;50.752;4.268;2023-03-01T01:57:42;-0.50;99.90
25482;DHT22;13395;50.752;4.268;2023-03-01T02:00:23;-0.40;99.90
25482;DHT22;13395;50.752;4.268;2023-03-01T02:02:51;-0.40;99.90
25482;DHT22;13395;50.752;4.268;2023-03-01T02:05:47;-0.50;99.90
25482;DHT22;13395;50.752;4.268;2023-03-01T02:08:18;-0.60;99.90
25482;DHT22;13395;50.752;4.268;2023-03-01T02:10:45;-0.70;99.90
25482;DHT22;13395;50.752;4.268;2023-03-01T02:13:12;-0.80;99.90
25482;DHT22;13395;50.752;4.268;2023-03-01T02:15:39;-0.70;99.90
25482;DHT22;13395;50.752;4.268;2023-03-01T02:18:07;-0.60;99.90
25482;DHT22;13395;50.752;4.268;2023-03-01T02:20:40;-0.70;99.90
25482;DHT22;13395;50.752;4.268;2023-03-01T02:23:08;-0.70;99.90
25482;DHT22;13395;50.752;4.268;2023-03-01T02:26:11;-0.70;99.90
25482;DHT22;13395;50.752;4.268;2023-03-01T02:28:42;-0.80;99.90
25482;DHT22;13395;50.752;4.268;2023-03-01T02:31:09;-0.80;99.90
25482;DHT22;13395;50.752;4.268;2023-03-01T02:33:55;-1.00;99.90
25482;DHT22;13395;50.752;4.268;2023-03-01T02:36:31;-1.10;99.90
25482;DHT22;13395;50.752;4.268;2023-03-01T02:39:01;-1.30;99.90
25482;DHT22;13395;50.752;4.268;2023-03-01T02:41:29;-1.30;99.90
25482;DHT22;13395;50.752;4.268;2023-03-01T02:43:55;-1.20;99.90
25482;DHT22;13395;50.752;4.268;2023-03-01T02:46:24;-1.20;99.90
25482;DHT22;13395;50.752;4.268;2023-03-01T02:48:52;-1.20;99.90
25482;DHT22;13395;50.752;4.268;2023-03-01T02:51:32;-1.40;99.90
25482;DHT22;13395;50.752;4.268;2023-03-01T02:54:27;-1.40;99.90
25482;DHT22;13395;50.752;4.268;2023-03-01T02:56:54;-1.40;99.90
25482;DHT22;13395;50.752;4.268;2023-03-01T02:59:22;-1.30;99.90
25482;DHT22;13395;50.752;4.268;2023-03-01T03:01:49;-1.30;99.90
25482;DHT22;13395;50.752;4.268;2023-03-01T03:04:17;-1.30;99.90
25482;DHT22;13395;50.752;4.268;2023-03-01T03:06:48;-1.40;99.90
25482;DHT22;13395;50.752;4.268;2023-03-01T03:09:14;-1.40;99.90
25482;DHT22;13395;50.752;4.268;2023-03-01T03:11:41;-1.40;99.90
25482;DHT22;13395;50.752;4.268;2023-03-01T03:14:09;-1.40;99.90
25482;DHT22;13395;50.752;4.268;2023-03-01T03:16:46;-1.50;99.90
25482;DHT22;13395;50.752;4.268;2023-03-01T03:19:12;-1.60;99.90
25482;DHT22;13395;50.752;4.268;2023-03-01T03:21:38;-1.70;99.90
25482;DHT22;13395;50.752;4.268;2023-03-01T03:24:04;-1.70;99.90
25482;DHT22;13395;50.752;4.268;2023-03-01T03:26:31;-1.70;99.90
25482;DHT22;13395;50.752;4.268;2023-03-01T03:28:56;-1.50;99.90
25482;DHT22;13395;50.752;4.268;2023-03-01T03:31:22;-1.40;99.90
25482;DHT22;13395;50.752;4.268;2023-03-01T03:33:48;-1.30;99.90
25482;DHT22;13395;50.752;4.268;2023-03-01T03:36:22;-1.30;99.90
25482;DHT22;13395;50.752;4.268;2023-03-01T03:38:48;-1.30;99.90
25482;DHT22;13395;50.752;4.268;2023-03-01T03:41:14;-1.30;99.90
25482;DHT22;13395;50.752;4.268;2023-03-01T03:43:41;-1.30;99.90
25482;DHT22;13395;50.752;4.268;2023-03-01T03:46:09;-1.40;99.90
25482;DHT22;13395;50.752;4.268;2023-03-01T03:48:37;-1.40;99.90
25482;DHT22;13395;50.752;4.268;2023-03-01T03:51:03;-1.30;99.90
25482;DHT22;13395;50.752;4.268;2023-03-01T03:53:32;-1.30;99.90
25482;DHT22;13395;50.752;4.268;2023-03-01T03:55:58;-1.30;99.90
25482;DHT22;13395;50.752;4.268;2023-03-01T03:58:25;-1.30;99.90
25482;DHT22;13395;50.752;4.268;2023-03-01T04:00:57;-1.30;99.90
25482;DHT22;13395;50.752;4.268;2023-03-01T04:03:24;-1.40;99.90
25482;DHT22;13395;50.752;4.268;2023-03-01T04:05:50;-1.40;99.90
25482;DHT22;13395;50.752;4.268;2023-03-01T04:08:17;-1.40;99.90
25482;DHT22;13395;50.752;4.268;2023-03-01T04:10:46;-1.40;99.90
25482;DHT22;13395;50.752;4.268;2023-03-01T04:13:15;-1.40;99.90
25482;DHT22;13395;50.752;4.268;2023-03-01T04:15:41;-1.40;99.90
25482;DHT22;13395;50.752;4.268;2023-03-01T04:18:09;-1.40;99.90
25482;DHT22;13395;50.752;4.268;2023-03-01T04:20:35;-1.40;99.90
25482;DHT22;13395;50.752;4.268;2023-03-01T04:23:04;-1.50;99.90
25482;DHT22;13395;50.752;4.268;2023-03-01T04:25:41;-1.40;99.90
25482;DHT22;13395;50.752;4.268;2023-03-01T04:28:07;-1.50;99.90
25482;DHT22;13395;50.752;4.268;2023-03-01T04:30:34;-1.40;99.90
25482;DHT22;13395;50.752;4.268;2023-03-01T04:33:03;-1.50;99.90
25482;DHT22;13395;50.752;4.268;2023-03-01T04:35:29;-1.40;99.90
25482;DHT22;13395;50.752;4.268;2023-03-01T04:37:55;-1.50;99.90
25482;DHT22;13395;50.752;4.268;2023-03-01T04:40:20;-1.50;99.90
25482;DHT22;13395;50.752;4.268;2023-03-01T04:42:46;-1.50;99.90
25482;DHT22;13395;50.752;4.268;2023-03-01T04:45:12;-1.50;99.90
25482;DHT22;13395;50.752;4.268;2023-03-01T04:47:47;-1.60;99.90
25482;DHT22;13395;50.752;4.268;2023-03-01T04:50:16;-1.60;99.90
25482;DHT22;13395;50.752;4.268;2023-03-01T04:52:42;-1.80;99.90
25482;DHT22;13395;50.752;4.268;2023-03-01T04:55:08;-1.80;99.90
25482;DHT22;13395;50.752;4.268;2023-03-01T04:57:34;-1.80;99.90
25482;DHT22;13395;50.752;4.268;2023-03-01T05:00:00;-1.80;99.90
25482;DHT22;13395;50.752;4.268;2023-03-01T05:02:26;-1.80;99.90
25482;DHT22;13395;50.752;4.268;2023-03-01T05:04:51;-1.70;99.90
25482;DHT22;13395;50.752;4.268;2023-03-01T05:07:17;-1.80;99.90
25482;DHT22;13395;50.752;4.268;2023-03-01T05:09:46;-1.80;99.90
25482;DHT22;13395;50.752;4.268;2023-03-01T05:12:12;-1.70;99.90
25482;DHT22;13395;50.752;4.268;2023-03-01T05:14:38;-1.80;99.90
25482;DHT22;13395;50.752;4.268;2023-03-01T05:17:04;-1.80;99.90
25482;DHT22;13395;50.752;4.268;2023-03-01T05:19:30;-1.80;99.90
25482;DHT22;13395;50.752;4.268;2023-03-01T05:21:57;-1.90;99.90
25482;DHT22;13395;50.752;4.268;2023-03-01T05:24:34;-1.80;99.90
25482;DHT22;13395;50.752;4.268;2023-03-01T05:27:01;-1.90;99.90
25482;DHT22;13395;50.752;4.268;2023-03-01T05:29:28;-1.90;99.90
25482;DHT22;13395;50.752;4.268;2023-03-01T05:31:55;-1.90;99.90
25482;DHT22;13395;50.752;4.268;2023-03-01T05:34:26;-1.90;99.90
25482;DHT22;13395;50.752;4.268;2023-03-01T05:36:53;-1.90;99.90
25482;DHT22;13395;50.752;4.268;2023-03-01T05:39:20;-2.00;99.90
25482;DHT22;13395;50.752;4.268;2023-03-01T05:41:55;-1.90;99.90
25482;DHT22;13395;50.752;4.268;2023-03-01T05:44:22;-2.00;99.90
25482;DHT22;13395;50.752;4.268;2023-03-01T05:46:48;-1.90;99.90
25482;DHT22;13395;50.752;4.268;2023-03-01T05:49:15;-1.90;99.90
25482;DHT22;13395;50.752;4.268;2023-03-01T05:51:42;-1.90;99.90
25482;DHT22;13395;50.752;4.268;2023-03-01T05:54:11;-1.80;99.90
25482;DHT22;13395;50.752;4.268;2023-03-01T05:56:37;-1.80;99.90
25482;DHT22;13395;50.752;4.268;2023-03-01T05:59:03;-1.90;99.90
25482;DHT22;13395;50.752;4.268;2023-03-01T06:01:31;-1.80;99.90
25482;DHT22;13395;50.752;4.268;2023-03-01T06:03:56;-1.90;99.90
25482;DHT22;13395;50.752;4.268;2023-03-01T06:06:22;-2.00;99.90
25482;DHT22;13395;50.752;4.268;2023-03-01T06:08:49;-2.30;99.90
25482;DHT22;13395;50.752;4.268;2023-03-01T06:11:15;-2.40;99.90
25482;DHT22;13395;50.752;4.268;2023-03-01T06:13:44;-2.30;99.90
25482;DHT22;13395;50.752;4.268;2023-03-01T06:16:11;-2.30;99.90
25482;DHT22;13395;50.752;4.268;2023-03-01T06:18:37;-2.10;99.90
25482;DHT22;13395;50.752;4.268;2023-03-01T06:21:03;-2.20;99.90
25482;DHT22;13395;50.752;4.268;2023-03-01T06:23:29;-2.10;99.90
25482;DHT22;13395;50.752;4.268;2023-03-01T06:25:55;-2.10;99.90
25482;DHT22;13395;50.752;4.268;2023-03-01T06:28:21;-2.00;99.90
25482;DHT22;13395;50.752;4.268;2023-03-01T06:30:47;-2.00;99.90
25482;DHT22;13395;50.752;4.268;2023-03-01T06:33:12;-2.00;99.90
25482;DHT22;13395;50.752;4.268;2023-03-01T06:35:38;-2.00;99.90
25482;DHT22;13395;50.752;4.268;2023-03-01T06:38:04;-2.00;99.90
25482;DHT22;13395;50.752;4.268;2023-03-01T06:40:31;-2.10;99.90
25482;DHT22;13395;50.752;4.268;2023-03-01T06:42:57;-2.10;99.90
25482;DHT22;13395;50.752;4.268;2023-03-01T06:45:24;-2.00;99.90
25482;DHT22;13395;50.752;4.268;2023-03-01T06:47:50;-2.00;99.90
25482;DHT22;13395;50.752;4.268;2023-03-01T06:50:16;-1.90;99.90
25482;DHT22;13395;50.752;4.268;2023-03-01T06:52:43;-2.00;99.90
25482;DHT22;13395;50.752;4.268;2023-03-01T06:55:11;-2.10;99.90
25482;DHT22;13395;50.752;4.268;2023-03-01T06:57:37;-2.00;99.90
25482;DHT22;13395;50.752;4.268;2023-03-01T07:00:06;-2.00;99.90
25482;DHT22;13395;50.752;4.268;2023-03-01T07:02:32;-1.90;99.90
25482;DHT22;13395;50.752;4.268;2023-03-01T07:04:58;-1.80;99.90
25482;DHT22;13395;50.752;4.268;2023-03-01T07:07:23;-1.60;99.90
25482;DHT22;13395;50.752;4.268;2023-03-01T07:09:49;-1.50;99.90
25482;DHT22;13395;50.752;4.268;2023-03-01T07:12:15;-1.40;99.90
25482;DHT22;13395;50.752;4.268;2023-03-01T07:14:41;-1.40;99.90
25482;DHT22;13395;50.752;4.268;2023-03-01T07:17:06;-1.40;99.90
25482;DHT22;13395;50.752;4.268;2023-03-01T07:19:32;-1.30;99.90
25482;DHT22;13395;50.752;4.268;2023-03-01T07:21:58;-1.20;99.90
25482;DHT22;13395;50.752;4.268;2023-03-01T07:24:23;-1.10;99.90
25482;DHT22;13395;50.752;4.268;2023-03-01T07:26:50;-0.90;99.90
25482;DHT22;13395;50.752;4.268;2023-03-01T07:29:16;-0.90;99.90
25482;DHT22;13395;50.752;4.268;2023-03-01T07:31:42;-0.60;99.90
25482;DHT22;13395;50.752;4.268;2023-03-01T07:34:08;-0.60;99.90
25482;DHT22;13395;50.752;4.268;2023-03-01T07:36:33;-0.50;99.90
25482;DHT22;13395;50.752;4.268;2023-03-01T07:39:02;-0.40;99.90
25482;DHT22;13395;50.752;4.268;2023-03-01T07:41:29;-0.20;99.90
25482;DHT22;13395;50.752;4.268;2023-03-01T07:43:55;0.60;99.90
25482;DHT22;13395;50.752;4.268;2023-03-01T07:46:21;1.80;99.90
25482;DHT22;13395;50.752;4.268;2023-03-01T07:48:46;3.10;99.90
25482;DHT22;13395;50.752;4.268;2023-03-01T07:51:12;4.30;99.90
25482;DHT22;13395;50.752;4.268;2023-03-01T07:53:38;5.70;99.90
25482;DHT22;13395;50.752;4.268;2023-03-01T07:56:07;6.90;99.90
25482;DHT22;13395;50.752;4.268;2023-03-01T07:58:43;7.60;99.90
25482;DHT22;13395;50.752;4.268;2023-03-01T08:01:11;8.40;98.90
25482;DHT22;13395;50.752;4.268;2023-03-01T08:03:37;8.90;96.00
25482;DHT22;13395;50.752;4.268;2023-03-01T08:06:05;9.20;94.30
25482;DHT22;13395;50.752;4.268;2023-03-01T08:08:31;9.40;93.40
25482;DHT22;13395;50.752;4.268;2023-03-01T08:10:58;9.20;92.40
25482;DHT22;13395;50.752;4.268;2023-03-01T08:13:24;8.70;92.80
25482;DHT22;13395;50.752;4.268;2023-03-01T08:15:50;8.40;92.70
25482;DHT22;13395;50.752;4.268;2023-03-01T08:18:17;8.70;93.30
25482;DHT22;13395;50.752;4.268;2023-03-01T08:20:43;9.70;91.70
25482;DHT22;13395;50.752;4.268;2023-03-01T08:23:09;9.10;91.00
25482;DHT22;13395;50.752;4.268;2023-03-01T08:25:34;8.70;91.50
25482;DHT22;13395;50.752;4.268;2023-03-01T08:28:00;9.10;91.00
25482;DHT22;13395;50.752;4.268;2023-03-01T08:30:25;9.90;90.90
25482;DHT22;13395;50.752;4.268;2023-03-01T08:32:51;10.50;89.60
25482;DHT22;13395;50.752;4.268;2023-03-01T08:35:18;10.80;87.70
25482;DHT22;13395;50.752;4.268;2023-03-01T08:37:44;11.50;86.10
25482;DHT22;13395;50.752;4.268;2023-03-01T08:40:10;12.10;82.50
25482;DHT22;13395;50.752;4.268;2023-03-01T08:42:36;11.90;81.10
25482;DHT22;13395;50.752;4.268;2023-03-01T08:45:05;12.30;79.20
25482;DHT22;13395;50.752;4.268;2023-03-01T08:47:31;12.30;78.30
25482;DHT22;13395;50.752;4.268;2023-03-01T08:49:59;12.40;79.10
25482;DHT22;13395;50.752;4.268;2023-03-01T08:52:24;13.30;76.30
25482;DHT22;13395;50.752;4.268;2023-03-01T08:54:50;13.10;75.60
25482;DHT22;13395;50.752;4.268;2023-03-01T08:57:15;13.80;74.70
25482;DHT22;13395;50.752;4.268;2023-03-01T08:59:41;14.00;72.60
25482;DHT22;13395;50.752;4.268;2023-03-01T09:02:12;14.60;71.60
25482;DHT22;13395;50.752;4.268;2023-03-01T09:04:39;15.00;68.40
25482;DHT22;13395;50.752;4.268;2023-03-01T09:07:04;14.60;68.50
25482;DHT22;13395;50.752;4.268;2023-03-01T09:09:30;14.40;68.30
25482;DHT22;13395;50.752;4.268;2023-03-01T09:11:56;14.90;68.30
25482;DHT22;13395;50.752;4.268;2023-03-01T09:14:21;15.10;66.50
25482;DHT22;13395;50.752;4.268;2023-03-01T09:16:47;14.80;65.40
25482;DHT22;13395;50.752;4.268;2023-03-01T09:19:13;14.30;66.70
25482;DHT22;13395;50.752;4.268;2023-03-01T09:21:39;14.40;65.30
25482;DHT22;13395;50.752;4.268;2023-03-01T09:24:05;13.90;66.30
25482;DHT22;13395;50.752;4.268;2023-03-01T09:26:31;13.70;67.20
25482;DHT22;13395;50.752;4.268;2023-03-01T09:28:56;14.70;67.00
25482;DHT22;13395;50.752;4.268;2023-03-01T09:31:23;14.60;63.80
25482;DHT22;13395;50.752;4.268;2023-03-01T09:33:51;14.80;64.50
25482;DHT22;13395;50.752;4.268;2023-03-01T09:36:19;15.40;63.40
25482;DHT22;13395;50.752;4.268;2023-03-01T09:38:46;14.80;63.50
25482;DHT22;13395;50.752;4.268;2023-03-01T09:46:44;15.50;60.60
25482;DHT22;13395;50.752;4.268;2023-03-01T09:49:31;15.20;62.40
25482;DHT22;13395;50.752;4.268;2023-03-01T09:52:16;15.10;61.30
25482;DHT22;13395;50.752;4.268;2023-03-01T09:54:44;15.50;61.70
25482;DHT22;13395;50.752;4.268;2023-03-01T10:00:33;15.40;61.40
25482;DHT22;13395;50.752;4.268;2023-03-01T10:06:04;16.70;58.90
25482;DHT22;13395;50.752;4.268;2023-03-01T10:09:00;16.60;58.40
25482;DHT22;13395;50.752;4.268;2023-03-01T10:11:35;16.30;58.60
25482;DHT22;13395;50.752;4.268;2023-03-01T10:22:00;16.50;56.90
25482;DHT22;13395;50.752;4.268;2023-03-01T10:24:32;15.80;57.30
25482;DHT22;13395;50.752;4.268;2023-03-01T10:27:05;14.60;59.10
25482;DHT22;13395;50.752;4.268;2023-03-01T10:29:48;13.60;61.40
25482;DHT22;13395;50.752;4.268;2023-03-01T10:32:14;13.50;62.60
25482;DHT22;13395;50.752;4.268;2023-03-01T10:34:40;13.80;62.00
25482;DHT22;13395;50.752;4.268;2023-03-01T10:37:16;13.60;61.40
25482;DHT22;13395;50.752;4.268;2023-03-01T10:42:38;13.70;61.90
25482;DHT22;13395;50.752;4.268;2023-03-01T10:50:40;13.20;62.60
25482;DHT22;13395;50.752;4.268;2023-03-01T10:58:33;13.50;61.20
25482;DHT22;13395;50.752;4.268;2023-03-01T11:01:02;14.00;61.20
25482;DHT22;13395;50.752;4.268;2023-03-01T11:03:30;14.10;60.20
25482;DHT22;13395;50.752;4.268;2023-03-01T11:08:45;14.50;59.30
25482;DHT22;13395;50.752;4.268;2023-03-01T11:11:33;15.20;59.10
25482;DHT22;13395;50.752;4.268;2023-03-01T11:14:24;15.10;59.00
25482;DHT22;13395;50.752;4.268;2023-03-01T11:17:29;15.30;58.30
25482;DHT22;13395;50.752;4.268;2023-03-01T11:22:55;16.50;57.00
25482;DHT22;13395;50.752;4.268;2023-03-01T11:25:26;17.90;56.20
25482;DHT22;13395;50.752;4.268;2023-03-01T11:27:53;19.50;53.90
25482;DHT22;13395;50.752;4.268;2023-03-01T11:30:29;19.50;52.50
25482;DHT22;13395;50.752;4.268;2023-03-01T11:35:36;19.30;50.10
25482;DHT22;13395;50.752;4.268;2023-03-01T11:40:50;17.80;52.40
25482;DHT22;13395;50.752;4.268;2023-03-01T11:54:41;16.80;52.60
25482;DHT22;13395;50.752;4.268;2023-03-01T11:57:31;16.00;53.30
25482;DHT22;13395;50.752;4.268;2023-03-01T12:02:59;14.40;57.10
25482;DHT22;13395;50.752;4.268;2023-03-01T12:08:17;14.40;56.80
25482;DHT22;13395;50.752;4.268;2023-03-01T12:13:38;14.40;56.40
25482;DHT22;13395;50.752;4.268;2023-03-01T12:16:24;14.30;56.80
25482;DHT22;13395;50.752;4.268;2023-03-01T12:18:58;14.10;57.70
25482;DHT22;13395;50.752;4.268;2023-03-01T12:24:20;13.10;58.60
25482;DHT22;13395;50.752;4.268;2023-03-01T12:27:34;13.20;58.70
25482;DHT22;13395;50.752;4.268;2023-03-01T12:29:51;13.70;58.50
25482;DHT22;13395;50.752;4.268;2023-03-01T12:35:42;15.30;55.50
25482;DHT22;13395;50.752;4.268;2023-03-01T12:38:19;15.10;54.30
25482;DHT22;13395;50.752;4.268;2023-03-01T12:44:04;16.00;53.80
25482;DHT22;13395;50.752;4.268;2023-03-01T12:49:23;18.20;51.00
25482;DHT22;13395;50.752;4.268;2023-03-01T12:52:03;18.00;51.00
25482;DHT22;13395;50.752;4.268;2023-03-01T12:54:36;17.70;50.10
25482;DHT22;13395;50.752;4.268;2023-03-01T12:57:18;18.30;50.10
25482;DHT22;13395;50.752;4.268;2023-03-01T13:08:42;18.20;49.90
25482;DHT22;13395;50.752;4.268;2023-03-01T13:11:17;18.50;50.00
25482;DHT22;13395;50.752;4.268;2023-03-01T13:13:44;18.10;50.10
25482;DHT22;13395;50.752;4.268;2023-03-01T13:19:28;17.30;51.00
25482;DHT22;13395;50.752;4.268;2023-03-01T13:21:55;17.90;49.20
25482;DHT22;13395;50.752;4.268;2023-03-01T13:24:39;17.40;49.10
25482;DHT22;13395;50.752;4.268;2023-03-01T13:27:20;17.40;49.20
25482;DHT22;13395;50.752;4.268;2023-03-01T13:29:58;17.40;48.70
25482;DHT22;13395;50.752;4.268;2023-03-01T13:32:29;17.20;50.00
25482;DHT22;13395;50.752;4.268;2023-03-01T13:37:52;17.70;50.40
25482;DHT22;13395;50.752;4.268;2023-03-01T13:42:50;17.50;49.60
25482;DHT22;13395;50.752;4.268;2023-03-01T13:45:38;17.00;50.60
25482;DHT22;13395;50.752;4.268;2023-03-01T13:50:43;16.90;48.70
25482;DHT22;13395;50.752;4.268;2023-03-01T13:53:16;16.70;50.30
25482;DHT22;13395;50.752;4.268;2023-03-01T13:55:45;16.70;51.40
25482;DHT22;13395;50.752;4.268;2023-03-01T14:00:45;16.90;51.20
25482;DHT22;13395;50.752;4.268;2023-03-01T14:03:14;17.40;50.60
25482;DHT22;13395;50.752;4.268;2023-03-01T14:05:44;18.20;49.80
25482;DHT22;13395;50.752;4.268;2023-03-01T14:08:24;17.70;48.80
25482;DHT22;13395;50.752;4.268;2023-03-01T14:19:23;15.30;52.50
25482;DHT22;13395;50.752;4.268;2023-03-01T14:24:58;14.10;54.00
25482;DHT22;13395;50.752;4.268;2023-03-01T14:27:35;12.90;56.20
25482;DHT22;13395;50.752;4.268;2023-03-01T14:30:14;12.20;57.40
25482;DHT22;13395;50.752;4.268;2023-03-01T14:32:41;11.80;58.80
25482;DHT22;13395;50.752;4.268;2023-03-01T14:35:22;11.20;59.70
25482;DHT22;13395;50.752;4.268;2023-03-01T14:37:48;10.90;60.90
25482;DHT22;13395;50.752;4.268;2023-03-01T14:40:41;10.70;60.80
25482;DHT22;13395;50.752;4.268;2023-03-01T14:43:10;10.60;61.80
25482;DHT22;13395;50.752;4.268;2023-03-01T14:45:37;10.40;62.30
25482;DHT22;13395;50.752;4.268;2023-03-01T14:48:04;10.40;62.80
25482;DHT22;13395;50.752;4.268;2023-03-01T14:50:32;10.40;63.00
25482;DHT22;13395;50.752;4.268;2023-03-01T14:53:04;10.30;62.50
25482;DHT22;13395;50.752;4.268;2023-03-01T14:55:37;10.30;63.40
25482;DHT22;13395;50.752;4.268;2023-03-01T14:58:11;10.20;62.40
25482;DHT22;13395;50.752;4.268;2023-03-01T15:00:37;10.30;63.50
25482;DHT22;13395;50.752;4.268;2023-03-01T15:03:14;10.10;63.60
25482;DHT22;13395;50.752;4.268;2023-03-01T15:05:41;9.80;63.70
25482;DHT22;13395;50.752;4.268;2023-03-01T15:08:20;9.60;64.30
25482;DHT22;13395;50.752;4.268;2023-03-01T15:11:20;9.50;64.40
25482;DHT22;13395;50.752;4.268;2023-03-01T15:13:44;9.40;64.60
25482;DHT22;13395;50.752;4.268;2023-03-01T15:16:15;9.40;65.00
25482;DHT22;13395;50.752;4.268;2023-03-01T15:18:47;9.40;65.90
25482;DHT22;13395;50.752;4.268;2023-03-01T15:23:59;9.30;65.70
25482;DHT22;13395;50.752;4.268;2023-03-01T15:26:34;9.40;65.70
25482;DHT22;13395;50.752;4.268;2023-03-01T15:29:00;9.40;66.30
25482;DHT22;13395;50.752;4.268;2023-03-01T15:31:29;9.40;65.20
25482;DHT22;13395;50.752;4.268;2023-03-01T15:34:23;9.30;66.20
25482;DHT22;13395;50.752;4.268;2023-03-01T15:36:51;9.30;66.20
25482;DHT22;13395;50.752;4.268;2023-03-01T15:39:41;9.20;66.40
25482;DHT22;13395;50.752;4.268;2023-03-01T15:47:47;8.80;67.00
25482;DHT22;13395;50.752;4.268;2023-03-01T15:50:23;8.80;67.40
25482;DHT22;13395;50.752;4.268;2023-03-01T15:52:49;8.70;67.50
25482;DHT22;13395;50.752;4.268;2023-03-01T15:55:21;8.70;68.20
25482;DHT22;13395;50.752;4.268;2023-03-01T15:57:48;8.70;69.30
25482;DHT22;13395;50.752;4.268;2023-03-01T16:00:14;8.60;68.90
25482;DHT22;13395;50.752;4.268;2023-03-01T16:02:41;8.70;68.40
25482;DHT22;13395;50.752;4.268;2023-03-01T16:05:21;8.60;68.40
25482;DHT22;13395;50.752;4.268;2023-03-01T16:07:48;8.50;69.30
25482;DHT22;13395;50.752;4.268;2023-03-01T16:10:14;8.50;70.00
25482;DHT22;13395;50.752;4.268;2023-03-01T16:12:39;8.40;70.30
25482;DHT22;13395;50.752;4.268;2023-03-01T16:15:18;8.40;70.40
25482;DHT22;13395;50.752;4.268;2023-03-01T16:17:44;8.40;70.10
25482;DHT22;13395;50.752;4.268;2023-03-01T16:20:10;8.40;69.60
25482;DHT22;13395;50.752;4.268;2023-03-01T16:22:36;8.30;70.40
25482;DHT22;13395;50.752;4.268;2023-03-01T16:25:02;8.30;70.70
25482;DHT22;13395;50.752;4.268;2023-03-01T16:27:28;8.30;70.30
25482;DHT22;13395;50.752;4.268;2023-03-01T16:29:53;8.30;70.50
25482;DHT22;13395;50.752;4.268;2023-03-01T16:32:19;8.50;71.40
25482;DHT22;13395;50.752;4.268;2023-03-01T16:34:45;8.30;70.30
25482;DHT22;13395;50.752;4.268;2023-03-01T16:37:13;8.20;70.50
25482;DHT22;13395;50.752;4.268;2023-03-01T16:39:38;8.20;71.70
25482;DHT22;13395;50.752;4.268;2023-03-01T16:42:04;8.00;70.60
25482;DHT22;13395;50.752;4.268;2023-03-01T16:44:30;8.00;69.80
25482;DHT22;13395;50.752;4.268;2023-03-01T16:46:55;7.90;70.50
25482;DHT22;13395;50.752;4.268;2023-03-01T16:49:21;7.80;70.40
25482;DHT22;13395;50.752;4.268;2023-03-01T16:51:47;7.80;70.60
25482;DHT22;13395;50.752;4.268;2023-03-01T16:54:12;7.70;70.80
25482;DHT22;13395;50.752;4.268;2023-03-01T16:56:38;7.70;71.60
25482;DHT22;13395;50.752;4.268;2023-03-01T16:59:05;7.70;70.50
25482;DHT22;13395;50.752;4.268;2023-03-01T17:01:31;7.60;70.20
25482;DHT22;13395;50.752;4.268;2023-03-01T17:04:03;7.60;70.90
25482;DHT22;13395;50.752;4.268;2023-03-01T17:06:29;7.60;71.50
25482;DHT22;13395;50.752;4.268;2023-03-01T17:08:54;7.50;71.60
25482;DHT22;13395;50.752;4.268;2023-03-01T17:11:21;7.50;71.70
25482;DHT22;13395;50.752;4.268;2023-03-01T17:13:47;7.40;71.70
25482;DHT22;13395;50.752;4.268;2023-03-01T17:16:16;7.30;72.30
25482;DHT22;13395;50.752;4.268;2023-03-01T17:18:42;7.30;72.50
25482;DHT22;13395;50.752;4.268;2023-03-01T17:21:08;7.20;73.20
25482;DHT22;13395;50.752;4.268;2023-03-01T17:23:36;7.20;73.30
25482;DHT22;13395;50.752;4.268;2023-03-01T17:26:03;7.20;74.00
25482;DHT22;13395;50.752;4.268;2023-03-01T17:28:30;7.10;74.20
25482;DHT22;13395;50.752;4.268;2023-03-01T17:30:58;7.20;74.70
25482;DHT22;13395;50.752;4.268;2023-03-01T17:33:24;7.20;75.00
25482;DHT22;13395;50.752;4.268;2023-03-01T17:35:50;7.20;75.00
25482;DHT22;13395;50.752;4.268;2023-03-01T17:38:16;7.10;74.30
25482;DHT22;13395;50.752;4.268;2023-03-01T17:40:42;7.00;75.20
25482;DHT22;13395;50.752;4.268;2023-03-01T17:43:10;6.90;76.00
25482;DHT22;13395;50.752;4.268;2023-03-01T17:45:37;6.80;75.60
25482;DHT22;13395;50.752;4.268;2023-03-01T17:48:03;6.80;76.00